createdAt,value
2022-09-13T00:04:13.820Z,28.70
2022-09-13T00:09:19.919Z,32.20
2022-09-13T00:14:26.738Z,29.20
2022-09-13T00:19:32.930Z,28.70
2022-09-13T00:24:39.373Z,31.00
2022-09-13T00:29:46.200Z,31.10
2022-09-13T00:34:52.112Z,31.50
2022-09-13T00:39:58.313Z,25.60
2022-09-13T00:45:14.657Z,28.20
2022-09-13T00:50:25.770Z,28.10
2022-09-13T00:55:36.024Z,25.10
2022-09-13T01:00:44.022Z,27.00
2022-09-13T01:05:54.577Z,30.00
2022-09-13T01:11:02.584Z,27.90
2022-09-13T01:16:09.340Z,26.10
2022-09-13T01:21:42.316Z,23.90
2022-09-13T01:27:19.050Z,31.30
2022-09-13T01:32:35.502Z,30.70
2022-09-13T01:37:52.100Z,31.20
2022-09-13T01:43:13.858Z,28.70
2022-09-13T01:48:29.764Z,29.40
2022-09-13T01:53:41.589Z,27.50
2022-09-13T01:58:55.435Z,25.90
2022-09-13T02:04:06.659Z,29.60
2022-09-13T02:09:19.526Z,27.80
2022-09-13T02:14:33.986Z,29.80
2022-09-13T02:19:43.810Z,25.90
2022-09-13T02:24:55.763Z,28.20
2022-09-13T02:30:06.985Z,35.90
2022-09-13T02:35:20.372Z,26.40
2022-09-13T02:40:30.778Z,28.60
2022-09-13T02:45:46.451Z,28.20
2022-09-13T02:51:05.982Z,27.90
2022-09-13T02:56:23.979Z,41.40
2022-09-13T03:01:30.463Z,27.00
2022-09-13T03:06:38.287Z,58.30
2022-09-13T03:11:56.761Z,46.80
2022-09-13T03:17:16.359Z,51.60
2022-09-13T03:22:37.751Z,44.70
2022-09-13T03:33:05.036Z,44.10
2022-09-13T03:38:15.771Z,47.80
2022-09-13T03:43:26.921Z,32.90
2022-09-13T03:53:43.446Z,29.80
2022-09-13T03:58:50.426Z,39.60
2022-09-13T04:03:57.153Z,26.70
2022-09-13T04:09:03.799Z,23.90
2022-09-13T04:14:10.688Z,29.20
2022-09-13T04:19:17.937Z,19.20
2022-09-13T04:24:27.465Z,23.80
2022-09-13T04:29:33.781Z,26.80
2022-09-13T04:34:40.614Z,30.60
2022-09-13T04:39:47.239Z,20.30
2022-09-13T04:44:52.950Z,36.80
2022-09-13T04:49:58.696Z,17.00
2022-09-13T04:55:04.910Z,28.20
2022-09-13T05:00:13.185Z,39.30
2022-09-13T05:05:18.968Z,27.90
2022-09-13T05:10:25.048Z,43.20
2022-09-13T05:15:30.809Z,60.10
2022-09-13T05:20:37.120Z,68.50
2022-09-13T05:25:42.888Z,61.60
2022-09-13T05:31:09.023Z,58.40
2022-09-13T05:36:15.166Z,71.10
2022-09-13T05:41:20.977Z,41.40
2022-09-13T05:46:26.929Z,55.30
2022-09-13T05:51:32.903Z,51.70
2022-09-13T05:56:38.654Z,38.90
2022-09-13T06:01:45.248Z,52.50
2022-09-13T06:06:51.126Z,59.60
2022-09-13T06:11:57.135Z,53.00
2022-09-13T06:17:03.023Z,42.60
2022-09-13T06:22:08.987Z,42.80
2022-09-13T06:27:15.919Z,55.30
2022-09-13T06:32:24.207Z,36.70
2022-09-13T06:37:30.022Z,34.60
2022-09-13T06:42:36.857Z,36.10
2022-09-13T06:47:42.651Z,28.50
2022-09-13T06:52:48.666Z,24.40
2022-09-13T06:57:54.311Z,23.90
2022-09-13T07:03:00.098Z,27.10
2022-09-13T07:08:05.892Z,25.10
2022-09-13T07:13:11.623Z,19.50
2022-09-13T07:18:17.551Z,22.40
2022-09-13T07:23:23.419Z,19.90
2022-09-13T07:28:35.129Z,18.10
2022-09-13T07:33:43.019Z,21.20
2022-09-13T07:38:49.177Z,20.60
2022-09-13T07:43:55.773Z,17.10
2022-09-13T07:49:02.398Z,12.90
2022-09-13T07:54:11.302Z,10.20
2022-09-13T07:59:18.503Z,11.70
2022-09-13T08:04:26.473Z,9.10
2022-09-13T08:14:36.735Z,7.80
2022-09-13T08:19:42.473Z,8.60
2022-09-13T08:24:48.482Z,7.20
2022-09-13T08:29:54.404Z,6.80
2022-09-13T08:35:00.403Z,7.40
2022-09-13T08:40:07.736Z,7.00
2022-09-13T08:45:14.134Z,6.90
2022-09-13T08:50:24.042Z,6.60
2022-09-13T08:55:49.888Z,9.10
2022-09-13T09:01:03.836Z,7.20
2022-09-13T09:06:14.699Z,7.80
2022-09-13T09:11:31.807Z,8.20
2022-09-13T09:16:41.069Z,7.30
2022-09-13T09:21:50.180Z,7.50
2022-09-13T09:26:58.219Z,8.50
2022-09-13T09:32:17.111Z,8.70
2022-09-13T09:37:26.007Z,8.90
2022-09-13T09:42:39.539Z,8.00
2022-09-13T09:47:49.001Z,9.20
2022-09-13T09:52:59.097Z,6.80
2022-09-13T09:58:08.199Z,6.90
2022-09-13T10:03:21.741Z,8.60
2022-09-13T10:08:31.732Z,8.80
2022-09-13T10:18:53.947Z,6.20
2022-09-13T10:24:21.639Z,5.90
2022-09-13T10:29:28.549Z,8.10
2022-09-13T10:34:37.152Z,9.30
2022-09-13T10:40:00.886Z,5.60
2022-09-13T10:45:09.028Z,7.20
2022-09-13T10:50:21.606Z,5.20
2022-09-13T10:55:31.279Z,8.20
2022-09-13T11:00:55.987Z,4.00
2022-09-13T11:06:11.053Z,6.50
2022-09-13T11:11:27.340Z,5.70
2022-09-13T11:16:47.951Z,8.90
2022-09-13T11:22:09.779Z,6.90
2022-09-13T11:27:24.022Z,6.20
2022-09-13T11:32:41.707Z,8.10
2022-09-13T11:37:58.085Z,7.10
2022-09-13T11:43:17.217Z,13.10
2022-09-13T11:48:53.114Z,6.60
2022-09-13T11:54:10.831Z,5.70
2022-09-13T11:59:24.871Z,8.60
2022-09-13T12:04:37.913Z,5.70
2022-09-13T12:09:52.282Z,3.90
2022-09-13T12:15:04.954Z,2.70
2022-09-13T12:20:29.889Z,4.20
2022-09-13T12:25:45.391Z,3.30
2022-09-13T12:30:56.683Z,4.40
2022-09-13T12:36:25.990Z,4.30
2022-09-13T12:41:52.792Z,3.60
2022-09-13T12:47:29.498Z,4.10
2022-09-13T12:52:41.123Z,5.70
2022-09-13T12:57:57.687Z,3.20
2022-09-13T13:03:12.853Z,3.80
2022-09-13T13:08:29.733Z,3.70
2022-09-13T13:13:39.273Z,5.30
2022-09-13T13:18:50.466Z,4.60
2022-09-13T13:24:45.508Z,2.70
2022-09-13T13:30:42.847Z,6.70
2022-09-13T13:35:49.660Z,22.30
2022-09-13T13:41:12.697Z,8.40
2022-09-13T13:46:31.319Z,7.10
2022-09-13T13:51:37.387Z,7.70
2022-09-13T13:56:52.952Z,6.30
2022-09-13T14:02:02.139Z,8.10
2022-09-13T14:07:19.742Z,20.70
2022-09-13T14:12:41.795Z,16.70
2022-09-13T14:18:10.730Z,13.10
2022-09-13T14:23:20.184Z,12.70
2022-09-13T14:28:27.519Z,14.10
2022-09-13T14:33:36.930Z,7.20
2022-09-13T14:38:54.829Z,7.00
2022-09-13T14:44:27.579Z,25.40
2022-09-13T14:49:36.939Z,9.20
2022-09-13T14:54:48.788Z,9.50
2022-09-13T14:59:59.152Z,36.50
2022-09-13T15:05:12.494Z,30.80
2022-09-13T15:10:28.348Z,40.80
2022-09-13T15:15:39.511Z,23.50
2022-09-13T15:20:52.197Z,18.50
2022-09-13T15:26:02.105Z,11.90
2022-09-13T15:31:08.156Z,23.90
2022-09-13T15:36:29.288Z,97.00
2022-09-13T15:46:47.164Z,63.00
2022-09-13T15:51:56.583Z,84.30
2022-09-13T15:57:06.156Z,65.30
2022-09-13T16:02:21.495Z,36.00
2022-09-13T16:07:28.015Z,35.80
2022-09-13T16:12:33.810Z,76.30
2022-09-13T16:17:39.947Z,46.50
2022-09-13T16:22:45.951Z,19.70
2022-09-13T16:27:53.429Z,13.90
2022-09-13T16:32:59.234Z,27.30
2022-09-13T16:38:05.168Z,35.40
2022-09-13T16:43:11.330Z,46.30
2022-09-13T16:48:17.346Z,36.20
2022-09-13T16:53:23.200Z,25.20
2022-09-13T16:58:29.223Z,31.60
2022-09-13T17:03:36.130Z,22.10
2022-09-13T17:08:46.690Z,20.00
2022-09-13T17:18:59.528Z,16.00
2022-09-13T17:24:10.114Z,14.40
2022-09-13T17:29:19.550Z,9.50
2022-09-13T17:34:25.298Z,16.40
2022-09-13T17:39:31.657Z,11.00
2022-09-13T17:44:37.484Z,11.30
2022-09-13T17:49:43.301Z,13.20
2022-09-13T17:54:50.271Z,13.40
2022-09-13T17:59:56.141Z,12.10
2022-09-13T18:05:05.424Z,8.50
2022-09-13T18:10:31.322Z,8.60
2022-09-13T18:15:38.463Z,13.10
2022-09-13T18:20:47.784Z,12.60
2022-09-13T18:26:03.447Z,12.30
2022-09-13T18:31:13.915Z,11.30
2022-09-13T18:36:20.310Z,11.20
2022-09-13T18:41:27.356Z,10.50
2022-09-13T18:46:34.748Z,10.20
2022-09-13T18:51:42.724Z,12.00
2022-09-13T18:56:49.113Z,11.70
2022-09-13T19:01:55.003Z,13.40
2022-09-13T19:07:02.375Z,10.80
2022-09-13T19:12:08.626Z,10.70
2022-09-13T19:17:15.182Z,10.70
2022-09-13T19:22:20.953Z,10.20
2022-09-13T19:27:26.810Z,11.00
2022-09-13T19:32:33.204Z,12.00
2022-09-13T19:37:39.019Z,11.10
2022-09-13T19:42:44.785Z,11.50
2022-09-13T19:53:17.366Z,17.60
2022-09-13T19:58:23.159Z,22.40
2022-09-13T20:03:28.918Z,18.00
2022-09-13T20:08:35.607Z,17.50
2022-09-13T20:13:41.777Z,15.00
2022-09-13T20:18:48.971Z,14.60
2022-09-13T20:23:59.108Z,16.60
2022-09-13T20:29:07.175Z,14.30
2022-09-13T20:34:15.132Z,10.00
2022-09-13T20:39:21.245Z,15.40
2022-09-13T20:44:27.458Z,18.90
2022-09-13T20:49:33.346Z,18.10
2022-09-13T20:54:39.151Z,12.10
2022-09-13T20:59:44.948Z,13.10
2022-09-13T21:04:50.890Z,10.90
2022-09-13T21:10:01.025Z,13.30
2022-09-13T21:15:08.111Z,10.40
2022-09-13T21:20:14.110Z,10.20
2022-09-13T21:25:20.754Z,13.50
2022-09-13T21:30:27.144Z,10.10
2022-09-13T21:35:36.408Z,8.70
2022-09-13T21:40:42.325Z,8.80
2022-09-13T21:45:48.179Z,10.50
2022-09-13T21:50:54.057Z,11.50
2022-09-13T21:56:03.710Z,9.60
2022-09-13T22:01:12.247Z,8.30
2022-09-13T22:06:21.973Z,9.60
2022-09-13T22:11:30.497Z,9.60
2022-09-13T22:16:37.906Z,7.70
2022-09-13T22:21:46.092Z,9.80
2022-09-13T22:26:53.159Z,8.50
2022-09-13T22:31:59.364Z,7.10
2022-09-13T22:37:05.681Z,7.20
2022-09-13T22:42:11.737Z,8.00
2022-09-13T22:47:17.568Z,9.30
2022-09-13T22:52:23.164Z,8.40
2022-09-13T22:57:29.281Z,7.20
2022-09-13T23:02:35.143Z,6.90
2022-09-13T23:07:40.719Z,6.10
2022-09-13T23:12:46.775Z,6.10
2022-09-13T23:17:53.156Z,5.10
2022-09-13T23:22:58.707Z,5.40
2022-09-13T23:28:04.692Z,3.90
2022-09-13T23:33:12.355Z,6.20
2022-09-13T23:38:18.464Z,3.10
2022-09-13T23:43:24.748Z,3.10
2022-09-13T23:48:30.502Z,2.30
2022-09-13T23:53:37.658Z,2.30
2022-09-13T23:58:43.776Z,2.50
